Terminal Aerodrome Forecast
Issued by NWS

Home | Current Version | Previous Version | Text Only | Print | Product List | Glossary On
Versions: 1 2 3 4 5 6 7 8 9 10 11 12 13 14 15 16 17 18 19 20 21 22 23 24 25 26 27 28 29 30 31 32 33 34 35
000
FTUS41 KRNK 170525
TAFBCB
TAF
KBCB 170525Z 1706/1806 00000KT P6SM SCT035 OVC050
     FM171000 00000KT 5SM BR SCT003 BKN015
      TEMPO 1710/1713 2SM -DZ BR BKN005
     FM171500 11003KT 6SM BR SCT004 OVC020
     FM171800 15004KT P6SM BKN035
     FM180000 00000KT P6SM SCT040=

USA.gov is the U.S. government's official web portal to all federal, state and local government web resources and services.